createdAt,value
2023-02-04T00:01:07.026Z,-0.05
2023-02-04T00:03:34.077Z,-0.14
2023-02-04T00:06:01.035Z,-0.25
2023-02-04T00:08:28.375Z,-0.42
2023-02-04T00:10:55.524Z,-0.51
2023-02-04T00:13:22.579Z,-0.55
2023-02-04T00:15:49.667Z,-0.65
2023-02-04T00:18:16.512Z,-0.70
2023-02-04T00:20:43.508Z,-0.78
2023-02-04T00:23:10.666Z,-0.84
2023-02-04T00:25:37.806Z,-0.89
2023-02-04T00:28:05.925Z,-0.91
2023-02-04T00:30:33.548Z,-0.95
2023-02-04T00:33:00.694Z,-1.00
2023-02-04T00:35:27.611Z,-1.02
2023-02-04T00:37:55.512Z,-1.04
2023-02-04T00:40:22.368Z,-1.06
2023-02-04T00:42:49.151Z,-1.09
2023-02-04T00:45:16.866Z,-1.06
2023-02-04T00:47:44.722Z,-1.00
2023-02-04T00:50:11.566Z,-0.96
2023-02-04T00:52:38.866Z,-0.92
2023-02-04T00:55:07.510Z,-0.89
2023-02-04T00:57:34.348Z,-0.88
2023-02-04T01:00:01.466Z,-0.90
2023-02-04T01:02:28.814Z,-0.90
2023-02-04T01:04:56.013Z,-0.90
2023-02-04T01:07:23.245Z,-0.94
2023-02-04T01:09:50.577Z,-1.00
2023-02-04T01:12:18.211Z,-1.05
2023-02-04T01:14:45.738Z,-1.07
2023-02-04T01:17:12.468Z,-1.09
2023-02-04T01:19:39.219Z,-1.10
2023-02-04T01:22:06.102Z,-1.12
2023-02-04T01:24:33.402Z,-1.13
2023-02-04T01:27:19.614Z,-1.12
2023-02-04T01:29:47.276Z,-1.12
2023-02-04T01:32:14.841Z,-1.11
2023-02-04T01:34:43.017Z,-1.10
2023-02-04T01:37:11.617Z,-1.10
2023-02-04T01:39:38.950Z,-1.09
2023-02-04T01:42:05.894Z,-1.07
2023-02-04T01:44:32.826Z,-1.05
2023-02-04T01:46:59.683Z,-1.03
2023-02-04T01:49:27.478Z,-1.01
2023-02-04T01:51:54.598Z,-0.98
2023-02-04T01:54:21.647Z,-0.90
2023-02-04T01:56:50.960Z,-0.78
2023-02-04T01:59:18.098Z,-0.65
2023-02-04T02:01:50.477Z,-0.56
2023-02-04T02:04:44.771Z,-0.47
2023-02-04T02:07:12.662Z,-0.36
2023-02-04T02:09:39.671Z,-0.29
2023-02-04T02:12:07.752Z,-0.26
2023-02-04T02:14:34.790Z,-0.24
2023-02-04T02:17:01.756Z,-0.23
2023-02-04T02:19:33.188Z,-0.23
2023-02-04T02:22:06.495Z,-0.24
2023-02-04T02:24:34.459Z,-0.26
2023-02-04T02:27:04.665Z,-0.30
2023-02-04T02:29:31.517Z,-0.33
2023-02-04T02:31:59.316Z,-0.35
2023-02-04T02:34:26.942Z,-0.36
2023-02-04T02:36:53.899Z,-0.38
2023-02-04T02:39:20.935Z,-0.42
2023-02-04T02:41:47.756Z,-0.43
2023-02-04T02:44:14.580Z,-0.43
2023-02-04T02:46:42.285Z,-0.45
2023-02-04T02:49:16.159Z,-0.49
2023-02-04T02:51:43.304Z,-0.54
2023-02-04T02:54:23.481Z,-0.60
2023-02-04T02:56:50.949Z,-0.64
2023-02-04T02:59:18.408Z,-0.67
2023-02-04T03:01:46.274Z,-0.68
2023-02-04T03:04:13.208Z,-0.67
2023-02-04T03:06:41.677Z,-0.58
2023-02-04T03:09:08.757Z,-0.44
2023-02-04T03:11:37.535Z,-0.31
2023-02-04T03:14:04.752Z,-0.19
2023-02-04T03:16:32.280Z,-0.08
2023-02-04T03:19:00.216Z,0.02
2023-02-04T03:21:27.166Z,0.08
2023-02-04T03:23:56.193Z,0.11
2023-02-04T03:26:26.687Z,0.14
2023-02-04T03:28:53.941Z,0.15
2023-02-04T03:31:21.372Z,0.15
2023-02-04T03:33:48.709Z,0.16
2023-02-04T03:36:15.447Z,0.16
2023-02-04T03:38:42.440Z,0.14
2023-02-04T03:41:09.392Z,0.13
2023-02-04T03:43:36.174Z,0.09
2023-02-04T03:46:03.095Z,0.05
2023-02-04T03:48:29.940Z,-0.02
2023-02-04T03:50:56.864Z,-0.07
2023-02-04T03:53:24.013Z,-0.10
2023-02-04T03:55:51.163Z,-0.11
2023-02-04T03:58:18.313Z,-0.13
2023-02-04T04:00:45.361Z,-0.13
2023-02-04T04:03:12.409Z,-0.13
2023-02-04T04:05:39.562Z,-0.12
2023-02-04T04:08:06.344Z,-0.14
2023-02-04T04:10:33.795Z,-0.15
2023-02-04T04:13:01.522Z,-0.17
2023-02-04T04:15:28.673Z,-0.20
2023-02-04T04:17:55.721Z,-0.25
2023-02-04T04:20:24.959Z,-0.23
2023-02-04T04:22:52.070Z,-0.16
2023-02-04T04:25:19.048Z,-0.08
2023-02-04T04:27:46.111Z,-0.01
2023-02-04T04:30:12.994Z,0.06
2023-02-04T04:32:40.360Z,0.10
2023-02-04T04:35:08.430Z,0.15
2023-02-04T04:37:35.479Z,0.16
2023-02-04T04:40:03.653Z,0.14
2023-02-04T04:42:30.902Z,0.10
2023-02-04T04:44:57.874Z,0.06
2023-02-04T04:47:24.628Z,0.03
2023-02-04T04:49:51.740Z,0.00
2023-02-04T04:52:18.786Z,-0.02
2023-02-04T04:54:46.211Z,-0.02
2023-02-04T04:57:13.408Z,-0.01
2023-02-04T04:59:40.181Z,0.01
2023-02-04T05:02:06.977Z,0.00
2023-02-04T05:04:33.927Z,-0.00
2023-02-04T05:07:01.076Z,-0.03
2023-02-04T05:09:27.860Z,-0.03
2023-02-04T05:11:54.867Z,-0.02
2023-02-04T05:14:21.753Z,-0.02
2023-02-04T05:16:50.219Z,-0.05
2023-02-04T05:19:17.211Z,-0.08
2023-02-04T05:21:44.289Z,-0.09
2023-02-04T05:24:11.112Z,-0.05
2023-02-04T05:26:38.087Z,0.08
2023-02-04T05:29:05.636Z,0.20
2023-02-04T05:31:33.742Z,0.28
2023-02-04T05:34:01.373Z,0.32
2023-02-04T05:36:28.110Z,0.30
2023-02-04T05:38:55.568Z,0.28
2023-02-04T05:41:22.519Z,0.28
2023-02-04T05:43:49.276Z,0.31
2023-02-04T05:46:16.308Z,0.28
2023-02-04T05:48:43.252Z,0.29
2023-02-04T05:51:10.303Z,0.30
2023-02-04T05:53:37.026Z,0.31
2023-02-04T05:56:04.336Z,0.31
2023-02-04T05:58:33.075Z,0.29
2023-02-04T06:01:01.015Z,0.25
2023-02-04T06:03:29.046Z,0.25
2023-02-04T06:05:56.661Z,0.28
2023-02-04T06:08:23.323Z,0.30
2023-02-04T06:10:50.055Z,0.31
2023-02-04T06:13:17.519Z,0.33
2023-02-04T06:15:44.255Z,0.33
2023-02-04T06:18:11.200Z,0.27
2023-02-04T06:20:38.245Z,0.32
2023-02-04T06:23:05.449Z,0.38
2023-02-04T06:25:34.593Z,0.53
2023-02-04T06:28:01.507Z,0.66
2023-02-04T06:30:28.667Z,0.74
2023-02-04T06:32:55.812Z,0.80
2023-02-04T06:35:22.743Z,0.83
2023-02-04T06:37:49.690Z,0.87
2023-02-04T06:40:16.996Z,0.93
2023-02-04T06:42:45.066Z,1.09
2023-02-04T06:45:11.976Z,1.20
2023-02-04T06:47:39.153Z,1.26
2023-02-04T06:50:06.578Z,1.25
2023-02-04T06:52:34.182Z,1.17
2023-02-04T06:55:01.122Z,1.18
2023-02-04T06:57:28.673Z,1.21
2023-02-04T06:59:55.619Z,1.20
2023-02-04T07:02:22.823Z,1.19
2023-02-04T07:04:49.715Z,1.25
2023-02-04T07:07:16.766Z,1.30
2023-02-04T07:09:43.811Z,1.29
2023-02-04T07:12:10.860Z,1.23
2023-02-04T07:14:38.689Z,1.12
2023-02-04T07:17:05.670Z,0.95
2023-02-04T07:19:33.232Z,0.86
2023-02-04T07:22:00.382Z,0.91
2023-02-04T07:24:27.841Z,1.01
2023-02-04T07:26:54.650Z,1.02
2023-02-04T07:29:25.684Z,1.02
2023-02-04T07:31:53.615Z,1.03
2023-02-04T07:34:20.930Z,0.99
2023-02-04T07:36:48.009Z,0.98
2023-02-04T07:39:15.144Z,1.02
2023-02-04T07:41:41.933Z,1.04
2023-02-04T07:44:09.249Z,1.01
2023-02-04T07:48:45.845Z,0.78
2023-02-04T07:51:12.786Z,0.90
2023-02-04T07:53:39.938Z,0.95
2023-02-04T07:56:06.878Z,0.96
2023-02-04T07:58:34.028Z,0.95
2023-02-04T08:01:02.540Z,0.94
2023-02-04T08:03:29.556Z,0.92
2023-02-04T08:05:57.013Z,0.93
2023-02-04T08:08:24.059Z,1.02
2023-02-04T08:10:51.209Z,1.11
2023-02-04T08:13:18.309Z,1.15
2023-02-04T08:15:45.467Z,1.18
2023-02-04T08:18:12.427Z,1.17
2023-02-04T08:20:39.197Z,1.14
2023-02-04T08:23:06.240Z,1.11
2023-02-04T08:25:33.703Z,1.12
2023-02-04T08:28:00.816Z,1.21
2023-02-04T08:30:28.202Z,1.26
2023-02-04T08:32:55.248Z,1.24
2023-02-04T08:35:22.327Z,1.19
2023-02-04T08:37:49.238Z,1.14
2023-02-04T08:40:16.119Z,1.09
2023-02-04T08:42:44.154Z,1.07
2023-02-04T08:45:11.005Z,1.03
2023-02-04T08:47:38.257Z,1.07
2023-02-04T08:50:05.822Z,1.13
2023-02-04T08:52:33.183Z,1.16
2023-02-04T08:55:00.138Z,1.14
2023-02-04T08:57:27.076Z,1.12
2023-02-04T08:59:53.964Z,1.05
2023-02-04T09:02:20.919Z,1.05
2023-02-04T09:04:48.235Z,1.07
2023-02-04T09:07:15.072Z,1.06
2023-02-04T09:09:42.840Z,1.03
2023-02-04T09:12:09.780Z,1.01
2023-02-04T09:14:38.261Z,0.88
2023-02-04T09:17:05.412Z,0.81
2023-02-04T09:19:32.973Z,0.77
2023-02-04T09:22:00.201Z,0.77
2023-02-04T09:24:27.256Z,0.76
2023-02-04T09:26:54.641Z,0.75
2023-02-04T09:29:21.589Z,0.73
2023-02-04T09:31:48.742Z,0.73
2023-02-04T09:34:15.784Z,0.73
2023-02-04T09:36:42.560Z,0.78
2023-02-04T09:39:09.612Z,0.81
2023-02-04T09:41:39.871Z,0.83
2023-02-04T09:44:11.999Z,0.84
2023-02-04T10:06:23.814Z,1.02
2023-02-04T10:08:52.149Z,1.24
2023-02-04T10:11:22.003Z,1.14
2023-02-04T10:13:53.968Z,1.03
2023-02-04T10:16:31.274Z,0.90
2023-02-04T10:19:02.969Z,0.85
2023-02-04T10:21:32.543Z,0.84
2023-02-04T10:24:01.831Z,0.81
2023-02-04T10:26:31.423Z,0.78
2023-02-04T10:29:04.507Z,0.76
2023-02-04T10:31:40.650Z,0.78
2023-02-04T10:34:16.837Z,0.80
2023-02-04T10:36:48.297Z,0.77
2023-02-04T10:39:21.469Z,0.65
2023-02-04T10:41:51.808Z,0.59
2023-02-04T10:44:25.517Z,0.54
2023-02-04T10:47:02.466Z,0.52
2023-02-04T10:49:33.227Z,0.56
2023-02-04T10:52:01.400Z,0.47
2023-02-04T10:54:35.715Z,0.37
2023-02-04T10:57:24.686Z,0.29
2023-02-04T11:00:01.500Z,0.16
2023-02-04T11:02:44.793Z,0.11
2023-02-04T11:05:18.393Z,0.11
2023-02-04T11:07:47.865Z,0.08
2023-02-04T11:10:29.745Z,0.08
2023-02-04T11:12:58.083Z,0.13
2023-02-04T11:15:49.147Z,0.17
2023-02-04T11:18:21.169Z,0.14
2023-02-04T11:20:52.549Z,0.12
2023-02-04T11:23:26.953Z,0.13
2023-02-04T11:26:10.363Z,0.10
2023-02-04T11:29:01.265Z,0.12
2023-02-04T11:31:32.792Z,0.14
2023-02-04T11:34:16.506Z,0.11
2023-02-04T11:37:01.812Z,0.07
2023-02-04T11:39:36.260Z,0.08
2023-02-04T11:42:05.883Z,0.09
2023-02-04T11:44:34.757Z,0.07
2023-02-04T11:47:03.321Z,-0.02
2023-02-04T11:49:31.911Z,-0.08
2023-02-04T11:52:10.285Z,-0.08
2023-02-04T11:54:39.313Z,-0.08
2023-02-04T11:57:11.391Z,-0.12
2023-02-04T11:59:42.318Z,-0.01
2023-02-04T12:02:18.820Z,0.07
2023-02-04T12:04:53.722Z,0.10
2023-02-04T12:07:25.387Z,0.04
2023-02-04T12:09:53.659Z,-0.03
2023-02-04T12:12:27.518Z,-0.02
2023-02-04T12:15:15.172Z,0.05
2023-02-04T12:17:47.075Z,0.04
2023-02-04T12:20:15.261Z,0.05
2023-02-04T12:22:43.812Z,0.04
2023-02-04T12:25:17.010Z,0.01
2023-02-04T12:27:45.249Z,0.07
2023-02-04T12:30:14.196Z,0.09
2023-02-04T12:32:42.552Z,0.07
2023-02-04T12:35:10.827Z,0.02
2023-02-04T12:37:39.185Z,-0.03
2023-02-04T12:40:08.605Z,0.00
2023-02-04T12:42:36.885Z,-0.01
2023-02-04T12:45:05.466Z,-0.04
2023-02-04T12:47:34.017Z,-0.05
2023-02-04T12:50:02.435Z,-0.05
2023-02-04T12:52:31.217Z,0.01
2023-02-04T12:55:01.442Z,0.10
2023-02-04T12:57:33.609Z,0.14
2023-02-04T13:00:01.882Z,0.14
2023-02-04T13:02:30.610Z,0.16
2023-02-04T13:05:00.788Z,0.16
2023-02-04T13:07:29.685Z,0.16
2023-02-04T13:10:00.351Z,0.14
2023-02-04T13:12:29.000Z,0.11
2023-02-04T13:15:00.761Z,0.11
2023-02-04T13:17:29.956Z,0.11
2023-02-04T13:31:35.562Z,0.25
2023-02-04T13:34:03.848Z,0.40
2023-02-04T13:36:32.495Z,0.31
2023-02-04T13:52:11.218Z,0.41
2023-02-04T13:54:40.427Z,0.65
2023-02-04T13:57:08.843Z,0.54
2023-02-04T13:59:37.318Z,0.46
2023-02-04T14:02:05.613Z,0.36
2023-02-04T14:04:35.390Z,0.25
2023-02-04T14:19:24.328Z,0.18
2023-02-04T14:21:54.273Z,0.32
2023-02-04T14:24:22.552Z,0.26
2023-02-04T14:40:18.926Z,0.07
2023-02-04T14:42:46.281Z,0.04
2023-02-04T14:45:13.666Z,-0.11
2023-02-04T14:47:41.190Z,-0.19
2023-02-04T14:50:11.314Z,-0.26
2023-02-04T14:52:38.403Z,-0.35
2023-02-04T14:55:06.051Z,-0.42
2023-02-04T14:57:33.274Z,-0.46
2023-02-04T15:00:00.128Z,-0.52
2023-02-04T15:02:27.051Z,-0.64
2023-02-04T15:04:55.135Z,-0.67
2023-02-04T15:07:23.004Z,-0.69
2023-02-04T15:09:49.948Z,-0.75
2023-02-04T15:12:17.098Z,-0.76
2023-02-04T15:14:43.843Z,-0.80
2023-02-04T15:17:10.855Z,-0.85
2023-02-04T15:19:38.241Z,-0.92
2023-02-04T15:22:05.291Z,-0.94
2023-02-04T15:24:32.721Z,-0.98
2023-02-04T15:26:59.885Z,-0.99
2023-02-04T15:29:26.748Z,-0.98
2023-02-04T15:31:53.883Z,-0.99
2023-02-04T15:34:20.577Z,-1.06
2023-02-04T15:36:47.575Z,-1.11
2023-02-04T15:39:14.413Z,-1.14
2023-02-04T15:43:39.288Z,-1.30
2023-02-04T15:46:07.526Z,-1.16
2023-02-04T15:48:36.676Z,-1.17
2023-02-04T15:51:05.246Z,-1.14
2023-02-04T15:53:34.968Z,-1.13
2023-02-04T15:56:05.122Z,-1.14
2023-02-04T15:58:33.354Z,-1.11
2023-02-04T16:01:02.605Z,-1.11
2023-02-04T16:03:31.549Z,-1.12
2023-02-04T16:05:59.928Z,-1.10
2023-02-04T16:08:28.516Z,-1.09
2023-02-04T16:10:58.393Z,-1.11
2023-02-04T16:13:26.727Z,-1.10
2023-02-04T16:15:55.115Z,-1.09
2023-02-04T16:18:25.328Z,-1.06
2023-02-04T16:20:56.346Z,-1.05
2023-02-04T16:23:24.602Z,-1.04
2023-02-04T16:25:53.106Z,-1.05
2023-02-04T16:28:23.750Z,-1.06
2023-02-04T16:30:52.096Z,-1.06
2023-02-04T16:33:20.799Z,-1.09
2023-02-04T16:35:59.829Z,-1.08
2023-02-04T16:38:28.575Z,-1.02
2023-02-04T16:40:57.297Z,-0.98
2023-02-04T16:43:25.772Z,-0.94
2023-02-04T16:45:54.343Z,-0.93
2023-02-04T16:48:22.431Z,-0.93
2023-02-04T16:50:53.685Z,-0.91
2023-02-04T16:53:22.221Z,-0.91
2023-02-04T16:55:50.333Z,-0.92
2023-02-04T16:58:19.900Z,-0.92
2023-02-04T17:00:48.376Z,-0.94
2023-02-04T17:03:16.810Z,-0.95
2023-02-04T17:05:45.181Z,-0.95
2023-02-04T17:08:15.241Z,-0.89
2023-02-04T17:11:02.105Z,-0.84
2023-02-04T17:13:30.590Z,-0.82
2023-02-04T17:16:01.389Z,-0.83
2023-02-04T17:18:30.520Z,-0.84
2023-02-04T17:20:59.442Z,-0.90
2023-02-04T17:23:28.815Z,-0.89
2023-02-04T17:25:57.454Z,-0.91
2023-02-04T17:28:26.531Z,-0.92
2023-02-04T17:30:55.038Z,-0.92
2023-02-04T17:33:23.465Z,-0.95
2023-02-04T17:35:51.945Z,-0.90
2023-02-04T17:38:20.322Z,-0.84
2023-02-04T18:01:26.032Z,-0.81
2023-02-04T18:03:54.753Z,-0.66
2023-02-04T18:06:27.316Z,-0.75
2023-02-04T18:09:02.235Z,-0.84
2023-02-04T18:11:36.018Z,-0.93
2023-02-04T18:14:24.440Z,-0.99
2023-02-04T18:16:57.777Z,-1.06
2023-02-04T18:19:30.141Z,-1.13
2023-02-04T18:21:58.878Z,-1.15
2023-02-04T18:24:30.549Z,-1.19
2023-02-04T18:27:06.329Z,-1.25
2023-02-04T18:29:34.626Z,-1.32
2023-02-04T18:32:06.594Z,-1.39
2023-02-04T18:34:40.405Z,-1.41
2023-02-04T18:37:34.003Z,-1.45
2023-02-04T18:40:31.223Z,-1.49
2023-02-04T18:43:15.190Z,-1.55
2023-02-04T18:45:43.356Z,-1.56
2023-02-04T18:48:20.860Z,-1.58
2023-02-04T18:50:51.605Z,-1.57
2023-02-04T18:53:27.907Z,-1.58
2023-02-04T18:55:58.128Z,-1.61
2023-02-04T18:58:36.293Z,-1.63
2023-02-04T19:01:10.520Z,-1.67
2023-02-04T19:03:46.590Z,-1.66
2023-02-04T19:06:32.022Z,-1.71
2023-02-04T19:09:12.654Z,-1.73
2023-02-04T19:11:49.051Z,-1.77
2023-02-04T19:14:35.566Z,-1.77
2023-02-04T19:17:22.314Z,-1.79
2023-02-04T19:20:00.532Z,-1.80
2023-02-04T19:22:40.171Z,-1.83
2023-02-04T19:25:37.212Z,-1.87
2023-02-04T19:28:28.305Z,-1.88
2023-02-04T19:31:00.456Z,-1.91
2023-02-04T19:33:42.363Z,-1.92
2023-02-04T19:36:31.137Z,-1.83
2023-02-04T19:39:01.067Z,-1.78
2023-02-04T19:41:30.435Z,-1.76
2023-02-04T19:44:08.365Z,-1.78
2023-02-04T19:46:37.404Z,-1.78
2023-02-04T19:49:23.559Z,-1.82
2023-02-04T19:51:54.532Z,-1.88
2023-02-04T19:54:36.126Z,-1.91
2023-02-04T19:57:37.462Z,-1.94
2023-02-04T20:00:25.703Z,-1.85
2023-02-04T20:02:53.803Z,-1.81
2023-02-04T20:05:29.375Z,-1.79
2023-02-04T20:08:27.465Z,-1.83
2023-02-04T20:10:55.871Z,-1.86
2023-02-04T20:13:25.102Z,-1.92
2023-02-04T20:15:53.202Z,-1.94
2023-02-04T20:18:26.651Z,-2.00
2023-02-04T20:20:55.645Z,-1.97
2023-02-04T20:23:23.785Z,-1.96
2023-02-04T20:25:51.866Z,-1.99
2023-02-04T20:28:20.354Z,-2.04
2023-02-04T20:30:50.218Z,-2.09
2023-02-04T20:33:32.411Z,-2.16
2023-02-04T20:36:30.152Z,-2.11
2023-02-04T20:39:20.186Z,-2.11
2023-02-04T20:41:48.294Z,-2.14
2023-02-04T20:44:27.542Z,-2.16
2023-02-04T20:47:02.194Z,-2.19
2023-02-04T20:49:38.272Z,-2.21
2023-02-04T20:52:31.197Z,-2.19
2023-02-04T20:55:00.789Z,-2.17
2023-02-04T20:57:29.143Z,-2.23
2023-02-04T20:59:57.585Z,-2.30
2023-02-04T21:02:28.648Z,-2.31
2023-02-04T21:04:56.953Z,-2.33
2023-02-04T21:07:25.326Z,-2.28
2023-02-04T21:09:58.131Z,-2.26
2023-02-04T21:12:27.437Z,-2.30
2023-02-04T21:14:55.848Z,-2.34
2023-02-04T21:17:24.010Z,-2.39
2023-02-04T21:19:52.227Z,-2.43
2023-02-04T21:22:20.281Z,-2.40
2023-02-04T21:24:48.345Z,-2.40
2023-02-04T21:27:17.764Z,-2.42
2023-02-04T21:29:45.964Z,-2.45
2023-02-04T21:32:14.046Z,-2.52
2023-02-04T21:34:42.081Z,-2.52
2023-02-04T21:37:10.400Z,-2.56
2023-02-04T21:39:38.686Z,-2.51
2023-02-04T21:42:14.075Z,-2.53
2023-02-04T21:44:42.436Z,-2.55
2023-02-04T21:47:10.978Z,-2.60
2023-02-04T21:49:41.348Z,-2.68
2023-02-04T21:52:11.255Z,-2.66
2023-02-04T21:54:39.319Z,-2.59
2023-02-04T21:57:08.050Z,-2.65
2023-02-04T21:59:36.404Z,-2.71
2023-02-04T22:02:04.495Z,-2.75
2023-02-04T22:04:32.653Z,-2.84
2023-02-04T22:07:02.410Z,-2.84
2023-02-04T22:09:30.705Z,-2.78
2023-02-04T22:11:58.927Z,-2.82
2023-02-04T22:14:26.968Z,-2.84
2023-02-04T22:16:55.135Z,-2.88
2023-02-04T22:19:23.777Z,-2.98
2023-02-04T22:21:52.258Z,-2.94
2023-02-04T22:24:20.285Z,-2.89
2023-02-04T22:26:51.618Z,-2.90
2023-02-04T22:29:23.564Z,-2.93
2023-02-04T22:31:51.912Z,-3.00
2023-02-04T22:34:20.192Z,-2.96
2023-02-04T22:36:48.884Z,-2.92
2023-02-04T22:39:16.906Z,-2.90
2023-02-04T22:41:45.188Z,-2.90
2023-02-04T22:44:13.577Z,-2.91
2023-02-04T22:46:41.914Z,-2.93
2023-02-04T22:49:10.138Z,-2.95
2023-02-04T22:51:38.560Z,-2.89
2023-02-04T22:54:06.809Z,-2.85
2023-02-04T22:56:35.085Z,-2.86
2023-02-04T22:59:04.360Z,-2.88
2023-02-04T23:01:32.585Z,-2.91
2023-02-04T23:04:00.830Z,-2.95
2023-02-04T23:06:29.182Z,-2.90
2023-02-04T23:08:57.516Z,-2.84
2023-02-04T23:11:26.037Z,-2.80
2023-02-04T23:13:54.413Z,-2.82
2023-02-04T23:16:22.493Z,-2.83
2023-02-04T23:18:50.567Z,-2.81
2023-02-04T23:21:20.944Z,-2.76
2023-02-04T23:23:49.689Z,-2.75
2023-02-04T23:26:17.751Z,-2.75
2023-02-04T23:28:46.748Z,-2.84
2023-02-04T23:31:14.940Z,-2.89
2023-02-04T23:33:43.151Z,-2.83
2023-02-04T23:36:11.433Z,-2.80
2023-02-04T23:38:39.500Z,-2.85
2023-02-04T23:41:08.130Z,-2.85
2023-02-04T23:43:36.546Z,-2.82
2023-02-04T23:46:04.836Z,-2.79
2023-02-04T23:48:33.244Z,-2.79
2023-02-04T23:51:02.657Z,-2.80
2023-02-04T23:53:31.246Z,-2.82
2023-02-04T23:56:00.282Z,-2.76
2023-02-04T23:58:28.639Z,-2.74
